createdAt,value
2022-11-03T00:01:44.110Z,6.60
2022-11-03T00:04:13.109Z,6.50
2022-11-03T00:06:41.654Z,6.60
2022-11-03T00:09:11.218Z,6.50
2022-11-03T00:11:40.078Z,6.50
2022-11-03T00:14:07.443Z,6.30
2022-11-03T00:16:34.047Z,6.40
2022-11-03T00:19:00.818Z,6.40
2022-11-03T00:21:28.153Z,6.30
2022-11-03T00:23:54.948Z,6.40
2022-11-03T00:26:26.507Z,6.40
2022-11-03T00:28:54.983Z,6.40
2022-11-03T00:31:33.065Z,6.40
2022-11-03T00:34:00.844Z,6.40
2022-11-03T00:36:32.652Z,6.50
2022-11-03T00:38:59.363Z,6.50
2022-11-03T00:41:26.767Z,6.60
2022-11-03T00:43:54.226Z,6.70
2022-11-03T00:46:22.595Z,6.80
2022-11-03T00:48:50.151Z,6.80
2022-11-03T00:51:29.910Z,6.90
2022-11-03T00:53:58.964Z,7.00
2022-11-03T00:56:32.346Z,7.00
2022-11-03T00:59:00.709Z,6.90
2022-11-03T01:01:31.333Z,6.80
2022-11-03T01:04:18.107Z,6.70
2022-11-03T01:06:50.252Z,6.60
2022-11-03T01:09:18.714Z,6.70
2022-11-03T01:12:05.246Z,6.60
2022-11-03T01:14:44.459Z,6.60
2022-11-03T01:17:16.698Z,6.50
2022-11-03T01:19:43.373Z,6.50
2022-11-03T01:22:11.294Z,6.40
2022-11-03T01:24:39.915Z,6.40
2022-11-03T01:27:06.597Z,6.30
2022-11-03T01:29:33.276Z,6.30
2022-11-03T01:32:00.092Z,6.20
2022-11-03T01:34:26.712Z,6.20
2022-11-03T01:36:53.304Z,6.10
2022-11-03T01:39:20.258Z,6.10
2022-11-03T01:41:49.364Z,6.10
2022-11-03T01:44:15.889Z,6.10
2022-11-03T01:46:48.894Z,6.10
2022-11-03T01:49:22.976Z,6.10
2022-11-03T01:51:57.334Z,6.20
2022-11-03T01:54:25.933Z,6.10
2022-11-03T01:56:53.138Z,6.10
2022-11-03T01:59:22.555Z,6.10
2022-11-03T02:01:49.394Z,6.10
2022-11-03T02:04:31.730Z,6.00
2022-11-03T02:07:15.159Z,5.90
2022-11-03T02:09:41.732Z,5.90
2022-11-03T02:12:09.308Z,5.90
2022-11-03T02:14:41.144Z,5.90
2022-11-03T02:17:12.255Z,5.90
2022-11-03T02:19:49.506Z,5.80
2022-11-03T02:22:35.290Z,5.80
2022-11-03T02:25:04.888Z,5.70
2022-11-03T02:27:31.608Z,5.80
2022-11-03T02:29:58.977Z,5.70
2022-11-03T02:32:32.663Z,5.60
2022-11-03T02:35:20.226Z,5.60
2022-11-03T02:37:50.388Z,5.50
2022-11-03T02:40:22.230Z,5.60
2022-11-03T02:42:52.423Z,5.50
2022-11-03T02:45:21.330Z,5.50
2022-11-03T02:47:50.684Z,5.50
2022-11-03T02:50:19.952Z,5.40
2022-11-03T02:52:47.803Z,5.40
2022-11-03T02:55:35.622Z,5.40
2022-11-03T02:58:08.112Z,5.40
2022-11-03T03:00:52.003Z,5.40
2022-11-03T03:03:26.044Z,5.40
2022-11-03T03:05:57.975Z,5.40
2022-11-03T03:08:26.946Z,5.50
2022-11-03T03:10:54.838Z,5.50
2022-11-03T03:13:23.908Z,5.40
2022-11-03T03:16:04.318Z,5.50
2022-11-03T03:18:45.804Z,5.40
2022-11-03T03:21:23.399Z,5.40
2022-11-03T03:24:02.476Z,5.40
2022-11-03T03:26:41.390Z,5.40
2022-11-03T03:29:24.993Z,5.40
2022-11-03T03:31:57.207Z,5.40
2022-11-03T03:34:35.621Z,5.40
2022-11-03T03:37:05.447Z,5.40
2022-11-03T03:39:36.091Z,5.30
2022-11-03T03:42:03.773Z,5.20
2022-11-03T03:44:32.075Z,5.20
2022-11-03T03:47:06.856Z,5.20
2022-11-03T03:49:33.417Z,5.20
2022-11-03T03:52:00.656Z,5.20
2022-11-03T03:54:28.447Z,5.10
2022-11-03T03:57:05.924Z,5.10
2022-11-03T03:59:32.617Z,5.10
2022-11-03T04:01:59.558Z,5.00
2022-11-03T04:04:26.307Z,5.00
2022-11-03T04:07:15.658Z,5.00
2022-11-03T04:09:42.309Z,5.00
2022-11-03T04:12:28.044Z,5.00
2022-11-03T04:15:13.496Z,4.90
2022-11-03T04:18:02.536Z,5.00
2022-11-03T04:20:48.316Z,5.00
2022-11-03T04:23:15.052Z,5.00
2022-11-03T04:25:47.826Z,5.00
2022-11-03T04:28:15.810Z,4.90
2022-11-03T04:30:42.461Z,4.90
2022-11-03T04:33:17.711Z,4.80
2022-11-03T04:35:44.933Z,4.80
2022-11-03T04:38:14.230Z,4.80
2022-11-03T04:40:47.112Z,4.80
2022-11-03T04:43:20.172Z,4.70
2022-11-03T04:45:48.023Z,4.70
2022-11-03T04:48:25.493Z,4.70
2022-11-03T04:50:57.780Z,4.70
2022-11-03T04:53:28.189Z,4.60
2022-11-03T04:55:55.035Z,4.60
2022-11-03T04:58:32.789Z,4.60
2022-11-03T05:01:01.292Z,4.60
2022-11-03T05:03:32.077Z,4.60
2022-11-03T05:06:01.735Z,4.50
2022-11-03T05:08:28.357Z,4.50
2022-11-03T05:10:55.238Z,4.50
2022-11-03T05:13:24.831Z,4.50
2022-11-03T05:16:01.972Z,4.50
2022-11-03T05:18:35.112Z,4.40
2022-11-03T05:21:14.753Z,4.40
2022-11-03T05:23:50.459Z,4.40
2022-11-03T05:26:26.646Z,4.30
2022-11-03T05:28:59.831Z,4.40
2022-11-03T05:31:29.333Z,4.40
2022-11-03T05:33:59.584Z,4.40
2022-11-03T05:36:29.946Z,4.40
2022-11-03T05:39:05.972Z,4.40
2022-11-03T05:41:32.944Z,4.40
2022-11-03T05:44:02.813Z,4.40
2022-11-03T05:46:31.944Z,4.40
2022-11-03T05:49:01.646Z,4.40
2022-11-03T05:51:39.161Z,4.50
2022-11-03T05:54:15.606Z,4.50
2022-11-03T05:56:45.256Z,4.50
2022-11-03T05:59:13.659Z,4.50
2022-11-03T06:01:41.467Z,4.60
2022-11-03T06:04:20.419Z,4.70
2022-11-03T06:06:58.775Z,4.70
2022-11-03T06:09:26.750Z,4.70
2022-11-03T06:11:56.980Z,4.70
2022-11-03T06:14:30.077Z,4.70
2022-11-03T06:16:57.906Z,4.80
2022-11-03T06:19:44.615Z,4.70
2022-11-03T06:22:17.049Z,4.80
2022-11-03T06:24:45.358Z,4.80
2022-11-03T06:27:19.321Z,4.80
2022-11-03T06:29:53.340Z,4.90
2022-11-03T06:32:20.076Z,5.00
2022-11-03T06:34:50.446Z,5.00
2022-11-03T06:37:24.671Z,5.10
2022-11-03T06:39:53.716Z,5.20
2022-11-03T06:42:23.787Z,5.30
2022-11-03T06:44:51.641Z,5.40
2022-11-03T06:47:27.550Z,5.50
2022-11-03T06:49:56.684Z,5.60
2022-11-03T06:52:29.196Z,5.70
2022-11-03T06:55:12.166Z,5.80
2022-11-03T06:57:44.139Z,5.70
2022-11-03T07:00:34.098Z,5.80
2022-11-03T07:03:18.117Z,5.80
2022-11-03T07:05:45.312Z,5.80
